Time;durP1;ratioP1;P1;durP2;ratioP2;P2;SDS_P1;SDS_P2;PMS_P1;PMS_P2;Temp;Humidity;BMP_temperature;BMP_pressure;BME280_temperature;BME280_humidity;BME280_pressure;Samples;Min_cycle;Max_cycle;Signal;HPM_P1;HPM_P2
2021/06/17 00:00:39;;;;;;;;;;;;;;;25.97;60.75;100674.84;2190169;39;113654;-53
2021/06/17 00:02:11;;;;;;;;;;;;;;;25.96;61.10;100676.84;2202308;39;114039;-53
2021/06/17 00:03:43;;;;;;;;;;;;;;;25.96;61.11;100676.84;2191198;39;113964;-53
2021/06/17 00:05:17;;;;;;;;;;;;;;;25.97;61.01;100674.84;2196536;39;113659;-53
2021/06/17 00:06:50;;;;;;;;;;;;;;;25.98;61.07;100679.34;2202693;39;115151;-53
2021/06/17 00:08:22;;;;;;;;;;;;;;;26.03;60.78;100682.75;2198401;39;115111;-54
2021/06/17 00:09:54;;;;;;;;;;;;;;;25.97;60.57;100675.69;2203674;39;114891;-53
2021/06/17 00:11:26;;;;;;;;;;;;;;;25.97;60.88;100672.84;2204289;39;115204;-54
2021/06/17 00:12:59;;;;;;;;;;;;;;;25.96;60.82;100671.19;2197001;39;114897;-53
2021/06/17 00:14:32;;;;;;;;;;;;;;;25.90;60.57;100660.44;2202045;39;114837;-53
2021/06/17 00:16:05;;;;;;;;;;;;;;;25.86;60.98;100651.84;2197364;39;114823;-53
2021/06/17 00:17:37;;;;;;;;;;;;;;;25.88;61.11;100649.50;2196930;39;115684;-53
2021/06/17 00:19:09;;;;;;;;;;;;;;;25.86;60.25;100643.34;2204641;39;114385;-54
2021/06/17 00:20:41;;;;;;;;;;;;;;;25.84;60.25;100637.22;2204155;39;114821;-53
2021/06/17 00:22:13;;;;;;;;;;;;;;;25.86;60.17;100632.00;2189691;39;114914;-53
2021/06/17 00:23:45;;;;;;;;;;;;;;;25.87;60.55;100630.00;2200810;39;114856;-53
2021/06/17 00:25:17;;;;;;;;;;;;;;;25.84;60.27;100631.56;2204980;39;114776;-53
2021/06/17 00:26:50;;;;;;;;;;;;;;;25.83;60.55;100621.41;2207596;39;115226;-53
2021/06/17 00:28:22;;;;;;;;;;;;;;;25.78;60.54;100615.97;2196528;39;115932;-53
2021/06/17 00:29:54;;;;;;;;;;;;;;;25.83;60.24;100614.91;2199313;39;114437;-53
2021/06/17 00:31:26;;;;;;;;;;;;;;;25.77;60.71;100614.31;2201353;39;115456;-53
2021/06/17 00:32:59;;;;;;;;;;;;;;;25.74;60.63;100625.53;2198966;39;115532;-53
2021/06/17 00:34:31;;;;;;;;;;;;;;;25.77;60.64;100628.47;2204762;39;116117;-53
2021/06/17 00:36:03;;;;;;;;;;;;;;;25.76;60.88;100640.16;2205918;39;114394;-53
2021/06/17 00:37:35;;;;;;;;;;;;;;;25.75;60.73;100616.69;2205097;39;116007;-53
2021/06/17 00:39:08;;;;;;;;;;;;;;;25.75;60.73;100608.19;2197962;39;115421;-53
2021/06/17 00:40:40;;;;;;;;;;;;;;;25.74;60.79;100611.38;2197569;39;115793;-52
2021/06/17 00:42:12;;;;;;;;;;;;;;;25.75;61.30;100613.84;2203849;39;115464;-53
2021/06/17 00:43:43;;;;;;;;;;;;;;;25.73;61.36;100613.38;2205990;39;114607;-53
2021/06/17 00:45:20;;;;;;;;;;;;;;;25.73;61.50;100609.72;2201170;39;115553;-53
2021/06/17 00:46:54;;;;;;;;;;;;;;;25.72;61.44;100616.53;2204156;39;115453;-53
2021/06/17 00:48:27;;;;;;;;;;;;;;;25.71;61.32;100614.91;2202851;39;115569;-53
2021/06/17 00:49:59;;;;;;;;;;;;;;;25.72;60.98;100613.72;2208118;39;115463;-52
2021/06/17 00:51:31;;;;;;;;;;;;;;;25.72;61.39;100610.88;2207308;39;113625;-53
2021/06/17 00:53:05;;;;;;;;;;;;;;;25.72;60.96;100614.53;2206624;39;113646;-53
2021/06/17 00:54:37;;;;;;;;;;;;;;;25.71;60.93;100600.75;2208744;39;113950;-54
2021/06/17 00:56:09;;;;;;;;;;;;;;;25.69;61.35;100601.09;2205199;39;113705;-53
2021/06/17 00:57:41;;;;;;;;;;;;;;;25.70;61.23;100599.94;2206812;39;114567;-54
2021/06/17 00:59:13;;;;;;;;;;;;;;;25.71;61.33;100598.75;2207530;39;113864;-53
2021/06/17 01:00:45;;;;;;;;;;;;;;;25.71;61.47;100598.75;2203302;39;113787;-53
2021/06/17 01:02:17;;;;;;;;;;;;;;;25.68;61.26;100600.28;2205363;39;114206;-54
2021/06/17 01:03:49;;;;;;;;;;;;;;;25.68;61.68;100603.09;2205986;39;113936;-53
2021/06/17 01:05:23;;;;;;;;;;;;;;;25.68;61.56;100596.63;2207687;39;114232;-53
2021/06/17 01:06:55;;;;;;;;;;;;;;;25.70;61.28;100593.44;2205332;39;113869;-53
2021/06/17 01:08:30;;;;;;;;;;;;;;;25.66;61.52;100594.16;2208766;39;114067;-54
2021/06/17 01:10:06;;;;;;;;;;;;;;;25.70;61.03;100593.44;2207223;39;114542;-53
2021/06/17 01:11:41;;;;;;;;;;;;;;;25.69;60.75;100592.63;2210980;39;113715;-53
2021/06/17 01:13:14;;;;;;;;;;;;;;;25.68;61.04;100596.63;2202850;39;114814;-54
2021/06/17 01:15:06;;;;;;;;;;;;;;;25.66;61.35;100588.50;2207683;39;114948;-54
2021/06/17 01:16:40;;;;;;;;;;;;;;;25.65;60.99;100592.50;2200851;39;114946;-53
2021/06/17 01:18:14;;;;;;;;;;;;;;;25.68;60.91;100590.97;2205153;39;114892;-53
2021/06/17 01:19:51;;;;;;;;;;;;;;;25.66;61.48;100580.00;2206344;39;114087;-53
2021/06/17 01:21:25;;;;;;;;;;;;;;;25.67;61.01;100577.97;2205272;39;114847;-53
2021/06/17 01:22:58;;;;;;;;;;;;;;;25.68;60.97;100576.81;2206060;39;114789;-53
2021/06/17 01:24:30;;;;;;;;;;;;;;;25.64;60.94;100576.69;2207542;39;114828;-53
2021/06/17 01:26:09;;;;;;;;;;;;;;;25.65;61.42;100572.69;2207988;39;115223;-53
2021/06/17 01:27:44;;;;;;;;;;;;;;;25.65;61.22;100574.69;2200043;39;115712;-53
2021/06/17 01:29:20;;;;;;;;;;;;;;;25.66;61.43;100576.34;2204091;39;115238;-53
2021/06/17 01:30:55;;;;;;;;;;;;;;;25.65;61.33;100575.53;2199899;39;114897;-53
2021/06/17 01:32:27;;;;;;;;;;;;;;;25.63;61.52;100571.38;2204297;39;115427;-55
2021/06/17 01:33:59;;;;;;;;;;;;;;;25.62;61.70;100581.06;2209971;39;114784;-53
2021/06/17 01:35:34;;;;;;;;;;;;;;;25.61;61.66;100566.09;2202092;39;114741;-53
2021/06/17 01:37:07;;;;;;;;;;;;;;;25.61;61.82;100560.44;2206746;39;116155;-54
2021/06/17 01:38:40;;;;;;;;;;;;;;;25.63;61.62;100565.72;2205039;39;115817;-53
2021/06/17 01:40:13;;;;;;;;;;;;;;;25.63;61.65;100568.53;2206257;39;116465;-53
2021/06/17 01:41:45;;;;;;;;;;;;;;;25.62;61.51;100579.03;2209042;39;115557;-53
2021/06/17 01:43:19;;;;;;;;;;;;;;;25.62;61.25;100575.41;2208202;39;115864;-53
2021/06/17 01:44:53;;;;;;;;;;;;;;;25.62;61.16;100583.91;2206150;39;115547;-54
2021/06/17 01:46:26;;;;;;;;;;;;;;;25.62;61.12;100593.19;2199971;39;115727;-53
2021/06/17 01:48:00;;;;;;;;;;;;;;;25.63;61.51;100591.19;2191914;39;117284;-53
2021/06/17 01:49:35;;;;;;;;;;;;;;;25.59;61.18;100581.75;2194411;39;115564;-52
2021/06/17 01:51:07;;;;;;;;;;;;;;;25.58;61.26;100575.25;2202793;39;115551;-53
2021/06/17 01:52:40;;;;;;;;;;;;;;;25.59;61.40;100576.09;2192419;39;115704;-53
2021/06/17 01:54:20;;;;;;;;;;;;;;;25.59;61.78;100574.09;2195930;39;115928;-53
2021/06/17 01:55:56;;;;;;;;;;;;;;;25.58;61.73;100580.09;2205465;39;115519;-53
2021/06/17 01:57:29;;;;;;;;;;;;;;;25.59;61.64;100579.75;2204055;39;113681;-53
2021/06/17 01:59:02;;;;;;;;;;;;;;;25.58;62.19;100583.75;2204448;39;113778;-53
2021/06/17 02:00:36;;;;;;;;;;;;;;;25.58;61.77;100589.41;2195371;39;113795;-52
2021/06/17 02:02:09;;;;;;;;;;;;;;;25.58;61.84;100586.59;2204208;39;117014;-54
2021/06/17 02:03:43;;;;;;;;;;;;;;;25.58;61.77;100589.41;2196185;39;113677;-54
2021/06/17 02:05:16;;;;;;;;;;;;;;;25.59;61.66;100595.91;2193560;39;114105;-52
2021/06/17 02:06:50;;;;;;;;;;;;;;;25.58;62.17;100605.56;2199469;39;113658;-52
2021/06/17 02:08:22;;;;;;;;;;;;;;;25.58;61.83;100617.69;2194047;39;113835;-54
2021/06/17 02:09:55;;;;;;;;;;;;;;;25.57;62.39;100638.72;2202887;39;113780;-53
2021/06/17 02:11:28;;;;;;;;;;;;;;;25.56;62.33;100650.38;2194327;39;114043;-53
2021/06/17 02:13:00;;;;;;;;;;;;;;;25.55;62.31;100654.38;2202860;39;113954;-53
2021/06/17 02:14:32;;;;;;;;;;;;;;;25.54;62.31;100638.56;2197083;39;114022;-53
2021/06/17 02:16:05;;;;;;;;;;;;;;;25.53;61.98;100634.06;2202184;39;113699;-53
2021/06/17 02:17:37;;;;;;;;;;;;;;;25.54;62.65;100632.91;2204826;39;114272;-54
2021/06/17 02:19:11;;;;;;;;;;;;;;;25.53;62.41;100625.59;2207400;39;113693;-53
2021/06/17 02:20:43;;;;;;;;;;;;;;;25.51;62.64;100622.25;2202878;39;114811;-53
2021/06/17 02:22:15;;;;;;;;;;;;;;;25.54;62.85;100615.94;2204539;39;114773;-54
2021/06/17 02:23:50;;;;;;;;;;;;;;;25.51;62.32;100619.44;2198577;39;114795;-54
2021/06/17 02:25:23;;;;;;;;;;;;;;;25.53;62.43;100626.38;2191796;39;114839;-53
2021/06/17 02:26:57;;;;;;;;;;;;;;;25.51;62.88;100622.25;2199306;39;114666;-53
2021/06/17 02:28:31;;;;;;;;;;;;;;;25.50;62.71;100629.94;2205119;39;114838;-53
2021/06/17 02:30:06;;;;;;;;;;;;;;;25.51;62.46;100613.78;2206640;39;114840;-53
2021/06/17 02:31:40;;;;;;;;;;;;;;;25.49;62.74;100605.63;2202899;39;115414;-53
2021/06/17 02:33:13;;;;;;;;;;;;;;;25.48;62.68;100606.84;2202759;39;115032;-53
2021/06/17 02:34:46;;;;;;;;;;;;;;;25.49;62.25;100601.97;2200401;39;114769;-53
2021/06/17 02:36:22;;;;;;;;;;;;;;;25.50;62.45;100592.31;2193664;39;114821;-53
2021/06/17 02:37:55;;;;;;;;;;;;;;;25.48;62.80;100587.03;2202211;39;114872;-52
2021/06/17 02:39:28;;;;;;;;;;;;;;;25.48;62.86;100594.69;2197277;39;114441;-53
2021/06/17 02:41:04;;;;;;;;;;;;;;;25.48;62.54;100589.84;2203082;39;113897;-53
2021/06/17 02:42:36;;;;;;;;;;;;;;;25.48;62.79;100578.53;2198131;39;115523;-53
2021/06/17 02:44:09;;;;;;;;;;;;;;;25.47;62.52;100564.75;2199798;39;114923;-54
2021/06/17 02:45:41;;;;;;;;;;;;;;;25.49;62.80;100551.88;2202374;39;114679;-53
2021/06/17 02:47:13;;;;;;;;;;;;;;;25.48;62.88;100553.06;2208615;39;114454;-53
2021/06/17 02:48:45;;;;;;;;;;;;;;;25.47;63.13;100554.25;2200530;39;116047;-54
2021/06/17 02:50:18;;;;;;;;;;;;;;;25.45;63.07;100559.41;2204793;39;114754;-53
2021/06/17 02:51:50;;;;;;;;;;;;;;;25.46;62.92;100560.25;2200749;39;115555;-52
2021/06/17 02:53:22;;;;;;;;;;;;;;;25.49;63.07;100573.69;2198501;39;116141;-53
2021/06/17 02:54:53;;;;;;;;;;;;;;;25.48;63.04;100569.22;2202261;39;114120;-52
2021/06/17 02:56:28;;;;;;;;;;;;;;;25.51;62.87;100565.69;2207197;39;116439;-53
2021/06/17 02:58:01;;;;;;;;;;;;;;;25.48;63.12;100567.22;2202918;39;114658;-54
2021/06/17 02:59:43;;;;;;;;;;;;;;;25.48;62.78;100567.22;2205349;39;115486;-53
2021/06/17 03:01:18;;;;;;;;;;;;;;;25.47;63.03;100562.75;2197578;39;115843;-57
2021/06/17 03:02:53;;;;;;;;;;;;;;;25.47;62.70;100567.56;2205377;39;116277;-53
2021/06/17 03:04:28;;;;;;;;;;;;;;;25.46;62.67;100563.91;2204123;39;113825;-53
2021/06/17 03:06:02;;;;;;;;;;;;;;;25.45;62.86;100558.59;2196200;39;113889;-53
2021/06/17 03:07:35;;;;;;;;;;;;;;;25.46;62.63;100557.41;2200646;39;113625;-53
2021/06/17 03:09:12;;;;;;;;;;;;;;;25.47;62.81;100562.75;2187960;39;113792;-53
2021/06/17 03:10:47;;;;;;;;;;;;;;;25.48;62.89;100558.75;2200429;39;113852;-53
2021/06/17 03:12:22;;;;;;;;;;;;;;;25.51;62.47;100562.84;2198159;39;113862;-52
2021/06/17 03:13:56;;;;;;;;;;;;;;;25.47;62.78;100574.06;2202324;39;113689;-54
2021/06/17 03:15:31;;;;;;;;;;;;;;;25.45;62.70;100564.25;2201540;39;113787;-53
2021/06/17 03:17:03;;;;;;;;;;;;;;;25.47;62.56;100568.41;2197568;39;113773;-53
2021/06/17 03:18:36;;;;;;;;;;;;;;;25.44;62.86;100562.63;2198125;39;114032;-54
2021/06/17 03:20:09;;;;;;;;;;;;;;;25.43;62.81;100564.63;2196296;39;113763;-52
2021/06/17 03:21:43;;;;;;;;;;;;;;;25.44;62.78;100568.28;2195279;39;113871;-52
2021/06/17 03:23:17;;;;;;;;;;;;;;;25.45;62.68;100567.06;2199927;39;113757;-53
2021/06/17 03:24:50;;;;;;;;;;;;;;;25.46;62.76;100563.06;2197289;39;113816;-53
2021/06/17 03:26:23;;;;;;;;;;;;;;;25.43;62.46;100561.78;2200490;39;114805;-53
2021/06/17 03:27:56;;;;;;;;;;;;;;;25.43;62.47;100556.13;2201667;39;114758;-53
2021/06/17 03:29:31;;;;;;;;;;;;;;;25.42;62.56;100562.97;2200714;39;114184;-53
2021/06/17 03:31:06;;;;;;;;;;;;;;;25.42;62.35;100562.13;2193836;39;114817;-53
2021/06/17 03:32:38;;;;;;;;;;;;;;;25.43;62.46;100569.44;2202750;39;115692;-53
2021/06/17 03:34:11;;;;;;;;;;;;;;;25.41;62.20;100577.44;2202354;39;115430;-53
2021/06/17 03:35:44;;;;;;;;;;;;;;;25.40;62.01;100576.63;2202827;39;114837;-53
2021/06/17 03:37:18;;;;;;;;;;;;;;;25.43;62.04;100577.94;2195616;39;115389;-53
2021/06/17 03:38:51;;;;;;;;;;;;;;;25.42;62.50;100564.97;2200968;39;115297;-53
2021/06/17 03:40:24;;;;;;;;;;;;;;;25.42;62.48;100565.78;2207513;39;114927;-53
2021/06/17 03:41:58;;;;;;;;;;;;;;;25.41;62.01;100568.97;2202623;39;114692;-53
2021/06/17 03:43:31;;;;;;;;;;;;;;;25.40;62.16;100576.63;2195230;39;114810;-53
2021/06/17 03:45:03;;;;;;;;;;;;;;;25.40;61.79;100576.63;2200902;39;114806;-53
2021/06/17 03:46:36;;;;;;;;;;;;;;;25.39;62.03;100566.50;2198096;39;114800;-53
2021/06/17 03:48:08;;;;;;;;;;;;;;;25.37;62.25;100563.19;2195837;39;116451;-53
2021/06/17 03:49:42;;;;;;;;;;;;;;;25.34;62.11;100566.72;2199840;39;115531;-53
2021/06/17 03:51:14;;;;;;;;;;;;;;;25.33;62.55;100565.06;2196888;39;116172;-54
2021/06/17 03:52:52;;;;;;;;;;;;;;;25.28;62.06;100567.28;2196763;39;115447;-53
2021/06/17 03:54:26;;;;;;;;;;;;;;;25.31;61.96;100570.22;2193381;39;115948;-53
2021/06/17 03:55:59;;;;;;;;;;;;;;;25.31;62.18;100563.75;2198682;39;115275;-53
2021/06/17 03:57:32;;;;;;;;;;;;;;;25.33;61.96;100555.75;2201071;39;115674;-53
2021/06/17 03:59:05;;;;;;;;;;;;;;;25.31;61.86;100552.44;2205208;39;115444;-53
2021/06/17 04:00:37;;;;;;;;;;;;;;;25.33;61.76;100547.25;2198855;39;115521;-53
2021/06/17 04:02:10;;;;;;;;;;;;;;;25.33;62.24;100550.94;2196352;39;115674;-53
2021/06/17 04:03:44;;;;;;;;;;;;;;;25.36;61.89;100546.56;2203688;39;116045;-53
2021/06/17 04:05:16;;;;;;;;;;;;;;;25.33;62.00;100548.09;2204137;39;115846;-53
2021/06/17 04:06:50;;;;;;;;;;;;;;;25.35;61.99;100545.72;2204585;39;114584;-54
2021/06/17 04:08:24;;;;;;;;;;;;;;;25.34;62.29;100543.28;2202598;39;115348;-53
2021/06/17 04:09:59;;;;;;;;;;;;;;;25.37;62.03;100542.56;2210234;39;115696;-53
2021/06/17 04:11:30;;;;;;;;;;;;;;;25.32;62.02;100537.13;2205174;39;113859;-53
2021/06/17 04:13:03;;;;;;;;;;;;;;;25.37;62.45;100546.22;2210145;39;113612;-54
2021/06/17 04:14:36;;;;;;;;;;;;;;;25.38;62.55;100536.56;2205197;39;114710;-53
2021/06/17 04:16:09;;;;;;;;;;;;;;;25.39;62.44;100545.88;2203578;39;113908;-53
2021/06/17 04:17:42;;;;;;;;;;;;;;;25.39;62.33;100543.03;2203735;39;113634;-53
2021/06/17 04:19:14;;;;;;;;;;;;;;;25.38;62.17;100539.38;2204183;39;113953;-53
2021/06/17 04:20:47;;;;;;;;;;;;;;;25.40;62.29;100547.50;2201587;39;113942;-53
2021/06/17 04:22:20;;;;;;;;;;;;;;;25.42;62.53;100556.47;2197604;39;113806;-53
2021/06/17 04:23:53;;;;;;;;;;;;;;;25.40;62.46;100553.97;2200249;39;113670;-53
2021/06/17 04:25:25;;;;;;;;;;;;;;;25.40;62.57;100555.97;2200851;39;113985;-53
2021/06/17 04:26:59;;;;;;;;;;;;;;;25.41;62.10;100554.81;2201726;39;113932;-54
2021/06/17 04:28:32;;;;;;;;;;;;;;;25.42;62.70;100560.13;2195392;39;113680;-53
2021/06/17 04:30:04;;;;;;;;;;;;;;;25.42;62.77;100562.97;2203062;39;113916;-53
2021/06/17 04:31:36;;;;;;;;;;;;;;;25.43;62.65;100561.78;2205259;39;113701;-53
2021/06/17 04:33:11;;;;;;;;;;;;;;;25.42;62.14;100565.78;2201020;39;115305;-54
2021/06/17 04:34:44;;;;;;;;;;;;;;;25.43;62.40;100569.44;2201833;39;115260;-53
2021/06/17 04:36:16;;;;;;;;;;;;;;;25.44;62.70;100568.28;2195270;39;114910;-53
2021/06/17 04:37:48;;;;;;;;;;;;;;;25.43;62.48;100569.44;2199948;39;114833;-53
2021/06/17 04:39:26;;;;;;;;;;;;;;;25.44;62.40;100565.44;2200652;39;115408;-53
2021/06/17 04:40:58;;;;;;;;;;;;;;;25.42;62.12;100574.28;2200705;39;115347;-53
2021/06/17 04:42:30;;;;;;;;;;;;;;;25.43;62.19;100570.28;2194940;39;114823;-53
2021/06/17 04:44:03;;;;;;;;;;;;;;;25.44;62.48;100577.56;2198474;39;114920;-53
2021/06/17 04:45:35;;;;;;;;;;;;;;;25.43;62.10;100572.28;2200073;39;114826;-53
2021/06/17 04:47:08;;;;;;;;;;;;;;;25.43;62.23;100577.94;2201689;39;114846;-52
2021/06/17 04:48:41;;;;;;;;;;;;;;;25.42;62.07;100584.75;2205287;39;114991;-53
2021/06/17 04:50:13;;;;;;;;;;;;;;;25.44;62.48;100583.22;2199732;39;114835;-53
2021/06/17 04:51:46;;;;;;;;;;;;;;;25.43;62.08;100580.75;2193308;39;115391;-53
2021/06/17 04:53:18;;;;;;;;;;;;;;;25.43;62.29;100590.09;2200967;39;114835;-53
2021/06/17 04:54:50;;;;;;;;;;;;;;;25.45;62.67;100592.53;2200793;39;115558;-53
2021/06/17 04:56:23;;;;;;;;;;;;;;;25.45;62.47;100598.19;2200122;39;115966;-53
2021/06/17 04:57:55;;;;;;;;;;;;;;;25.45;62.57;100590.53;2202975;39;114504;-53
2021/06/17 04:59:28;;;;;;;;;;;;;;;25.44;62.32;100597.38;2203825;39;115513;-53
2021/06/17 05:01:00;;;;;;;;;;;;;;;25.45;62.88;100598.19;2200440;39;115488;-53
2021/06/17 05:02:32;;;;;;;;;;;;;;;25.44;62.29;100596.56;2202011;39;115853;-53
2021/06/17 05:04:04;;;;;;;;;;;;;;;25.45;62.67;100595.38;2186830;39;115497;-53
2021/06/17 05:05:36;;;;;;;;;;;;;;;25.45;62.53;100599.03;2197023;39;115499;-53
2021/06/17 05:07:23;;;;;;;;;;;;;;;25.45;62.36;100599.03;2193206;39;115807;-52
2021/06/17 05:12:05;;;;;;;;;;;;;;;25.44;62.34;100605.84;2203016;39;115592;-53
2021/06/17 05:13:42;;;;;;;;;;;;;;;25.45;62.49;100607.50;2205152;39;114935;-53
2021/06/17 05:15:14;;;;;;;;;;;;;;;25.47;62.39;100610.84;2207479;39;115505;-54
2021/06/17 05:16:47;;;;;;;;;;;;;;;25.46;62.48;100600.69;2205478;39;113824;-53
2021/06/17 05:18:19;;;;;;;;;;;;;;;25.47;62.12;100602.34;2198148;39;113860;-52
2021/06/17 05:19:51;;;;;;;;;;;;;;;25.47;62.18;100596.69;2195181;39;113596;-54
2021/06/17 05:21:23;;;;;;;;;;;;;;;25.51;62.11;100597.63;2203279;39;113770;-53
2021/06/17 05:22:56;;;;;;;;;;;;;;;25.47;62.23;100596.69;2204880;39;113884;-53
2021/06/17 05:24:28;;;;;;;;;;;;;;;25.46;62.38;100591.38;2204615;39;113916;-53
2021/06/17 05:26:00;;;;;;;;;;;;;;;25.46;62.09;100591.38;2198039;39;113912;-53
2021/06/17 05:27:32;;;;;;;;;;;;;;;25.50;62.20;100589.47;2198808;39;113659;-53
2021/06/17 05:29:05;;;;;;;;;;;;;;;25.47;62.03;100596.69;2201630;39;113935;-53
2021/06/17 05:30:36;;;;;;;;;;;;;;;25.46;62.30;100605.50;2198299;39;113600;-53
2021/06/17 05:32:08;;;;;;;;;;;;;;;25.46;62.32;100602.69;2202483;39;114089;-53
2021/06/17 05:33:40;;;;;;;;;;;;;;;25.47;62.22;100610.84;2204696;39;113743;-54
2021/06/17 05:35:13;;;;;;;;;;;;;;;25.47;62.27;100610.84;2198185;39;114301;-54
2021/06/17 05:36:46;;;;;;;;;;;;;;;25.48;62.02;100608.84;2203022;39;113601;-54
2021/06/17 05:38:18;;;;;;;;;;;;;;;25.46;62.11;100603.50;2201292;39;113705;-53
2021/06/17 05:39:50;;;;;;;;;;;;;;;25.45;62.03;100596.19;2196260;39;115046;-53
2021/06/17 05:41:22;;;;;;;;;;;;;;;25.46;62.49;100600.69;2201503;39;113906;-53
2021/06/17 05:42:54;;;;;;;;;;;;;;;25.47;62.27;100593.03;2198946;39;114813;-57
2021/06/17 05:44:26;;;;;;;;;;;;;;;25.49;62.15;100596.31;2202300;39;114769;-53
2021/06/17 05:45:58;;;;;;;;;;;;;;;25.50;62.49;100601.63;2204256;39;114849;-53
2021/06/17 05:47:30;;;;;;;;;;;;;;;25.50;61.87;100600.81;2204184;39;115131;-53
2021/06/17 05:49:01;;;;;;;;;;;;;;;25.49;62.13;100604.81;2204594;39;114768;-54
2021/06/17 05:50:33;;;;;;;;;;;;;;;25.48;62.36;100598.34;2205313;39;114938;-53
2021/06/17 05:52:06;;;;;;;;;;;;;;;25.48;62.15;100608.84;2197621;39;114934;-53
2021/06/17 05:53:38;;;;;;;;;;;;;;;25.50;62.00;100615.78;2202228;39;114875;-53
2021/06/17 05:55:09;;;;;;;;;;;;;;;25.48;62.25;100608.84;2204962;39;114829;-53
2021/06/17 05:56:42;;;;;;;;;;;;;;;25.46;62.44;100611.16;2198372;39;114913;-53
2021/06/17 05:58:14;;;;;;;;;;;;;;;25.49;62.46;100613.28;2197297;39;114917;-53
2021/06/17 05:59:45;;;;;;;;;;;;;;;25.45;62.31;100615.16;2206569;39;113925;-53
2021/06/17 06:01:18;;;;;;;;;;;;;;;25.46;61.98;100617.66;2205851;39;115923;-53
2021/06/17 06:02:50;;;;;;;;;;;;;;;25.45;62.21;100623.66;2198878;39;116026;-54
2021/06/17 06:04:22;;;;;;;;;;;;;;;25.46;62.01;100619.66;2203672;39;115494;-54
2021/06/17 06:05:53;;;;;;;;;;;;;;;25.48;62.08;100632.28;2198101;39;115500;-53
2021/06/17 06:07:26;;;;;;;;;;;;;;;25.50;62.42;100629.09;2199729;39;115642;-53
2021/06/17 06:08:57;;;;;;;;;;;;;;;25.46;61.98;100623.31;2202179;39;115294;-54
2021/06/17 06:10:30;;;;;;;;;;;;;;;25.46;62.13;100622.47;2205192;39;115538;-53
2021/06/17 06:12:04;;;;;;;;;;;;;;;25.48;62.62;100622.97;2197705;39;114618;-54
2021/06/17 06:13:36;;;;;;;;;;;;;;;25.49;62.14;100627.44;2201376;39;116264;-53
2021/06/17 06:15:09;;;;;;;;;;;;;;;25.49;62.78;100633.09;2203800;39;115541;-53
2021/06/17 06:16:42;;;;;;;;;;;;;;;25.49;62.30;100630.25;2204221;39;115387;-53
2021/06/17 06:18:15;;;;;;;;;;;;;;;25.49;62.66;100635.91;2204344;39;115646;-53
2021/06/17 06:19:46;;;;;;;;;;;;;;;25.48;62.73;100637.13;2196336;39;115621;-53
2021/06/17 06:21:18;;;;;;;;;;;;;;;25.50;62.51;100629.94;2200614;39;115477;-53
2021/06/17 06:22:50;;;;;;;;;;;;;;;25.51;62.50;100644.91;2196480;39;114137;-53
2021/06/17 06:24:22;;;;;;;;;;;;;;;25.51;62.33;100636.41;2200419;39;113712;-53
2021/06/17 06:25:54;;;;;;;;;;;;;;;25.50;62.50;100637.56;2195834;39;113817;-53
2021/06/17 06:27:26;;;;;;;;;;;;;;;25.49;62.35;100635.91;2196528;39;114143;-52
2021/06/17 06:28:58;;;;;;;;;;;;;;;25.48;61.95;100637.13;2197848;39;113788;-53
2021/06/17 06:30:29;;;;;;;;;;;;;;;25.46;62.26;100633.81;2203137;39;113879;-53
2021/06/17 06:32:02;;;;;;;;;;;;;;;25.48;61.88;100629.47;2197320;39;113711;-56
2021/06/17 06:33:34;;;;;;;;;;;;;;;25.45;62.27;100634.97;2195819;39;114006;-53
2021/06/17 06:35:07;;;;;;;;;;;;;;;25.49;62.10;100635.91;2195991;39;113673;-53
2021/06/17 06:36:39;;;;;;;;;;;;;;;25.48;62.45;100640.78;2203079;39;113837;-53
2021/06/17 06:38:11;;;;;;;;;;;;;;;25.47;62.42;100641.94;2201436;39;113954;-53
2021/06/17 06:39:43;;;;;;;;;;;;;;;25.48;62.38;100635.13;2197441;39;113688;-53
2021/06/17 06:41:15;;;;;;;;;;;;;;;25.49;62.00;100631.09;2199959;39;113652;-53
2021/06/17 06:42:47;;;;;;;;;;;;;;;25.46;62.21;100634.63;2206578;39;113877;-53
2021/06/17 06:44:18;;;;;;;;;;;;;;;25.49;62.00;100642.41;2205098;39;115006;-54
2021/06/17 06:45:50;;;;;;;;;;;;;;;25.48;62.11;100639.94;2198932;39;114876;-53
2021/06/17 06:47:22;;;;;;;;;;;;;;;25.50;62.15;100644.06;2197461;39;115012;-53
2021/06/17 06:48:54;;;;;;;;;;;;;;;25.55;62.17;100645.88;2201928;39;114881;-53
2021/06/17 06:50:26;;;;;;;;;;;;;;;25.53;62.33;100646.19;2202869;39;114785;-53
2021/06/17 06:51:58;;;;;;;;;;;;;;;25.53;61.89;100645.38;2198120;39;115125;-53
2021/06/17 06:53:30;;;;;;;;;;;;;;;25.54;62.43;100644.22;2202912;39;114871;-53
2021/06/17 06:55:03;;;;;;;;;;;;;;;25.52;61.91;100643.72;2205830;39;114796;-53
2021/06/17 06:56:35;;;;;;;;;;;;;;;25.50;62.13;100635.59;2195866;39;115139;-53
2021/06/17 06:58:07;;;;;;;;;;;;;;;25.51;61.83;100642.06;2200322;39;114868;-52
2021/06/17 06:59:39;;;;;;;;;;;;;;;25.40;61.83;100638.00;2203195;39;114835;-53
2021/06/17 07:01:11;;;;;;;;;;;;;;;25.36;62.26;100646.38;2194818;39;114916;-54
2021/06/17 07:02:43;;;;;;;;;;;;;;;25.32;61.86;100650.25;2201102;39;115286;-53
2021/06/17 07:04:15;;;;;;;;;;;;;;;25.27;62.07;100653.28;2198977;39;114849;-53
2021/06/17 07:05:47;;;;;;;;;;;;;;;25.24;62.36;100650.00;2200189;39;115458;-53
2021/06/17 07:07:19;;;;;;;;;;;;;;;25.24;62.08;100654.84;2205402;39;115922;-53
2021/06/17 07:08:50;;;;;;;;;;;;;;;25.22;61.73;100651.50;2204528;39;116047;-53
2021/06/17 07:10:22;;;;;;;;;;;;;;;25.16;61.84;100650.94;2201989;39;115169;-52
2021/06/17 07:11:54;;;;;;;;;;;;;;;25.17;62.12;100646.91;2202834;39;116336;-53
2021/06/17 07:13:28;;;;;;;;;;;;;;;25.17;62.20;100646.91;2198677;39;115455;-53
2021/06/17 07:15:00;;;;;;;;;;;;;;;25.17;61.85;100634.75;2204281;39;115479;-53
2021/06/17 07:16:33;;;;;;;;;;;;;;;25.16;61.91;100647.28;2204244;39;115605;-53
2021/06/17 07:18:05;;;;;;;;;;;;;;;25.20;62.09;100646.22;2196081;39;114637;-53
2021/06/17 07:19:37;;;;;;;;;;;;;;;25.20;62.12;100643.41;2201971;39;114645;-54
2021/06/17 07:21:11;;;;;;;;;;;;;;;25.25;62.21;100650.84;2203767;39;115568;-54
2021/06/17 07:22:43;;;;;;;;;;;;;;;25.21;62.11;100650.69;2197107;39;115520;-54
2021/06/17 07:24:15;;;;;;;;;;;;;;;25.16;62.12;100650.09;2201873;39;115076;-52
2021/06/17 07:25:47;;;;;;;;;;;;;;;25.15;62.07;100652.09;2195573;39;115529;-53
2021/06/17 07:27:19;;;;;;;;;;;;;;;25.15;61.76;100659.75;2204956;39;114577;-53
2021/06/17 07:28:51;;;;;;;;;;;;;;;25.08;61.58;100651.81;2203361;39;113679;-61
2021/06/17 07:30:23;;;;;;;;;;;;;;;25.06;61.73;100645.69;2203336;39;114021;-52
2021/06/17 07:31:56;;;;;;;;;;;;;;;25.05;61.83;100649.69;2205280;39;113743;-53
2021/06/17 07:33:28;;;;;;;;;;;;;;;25.00;61.61;100644.25;2199205;39;113929;-53
2021/06/17 07:35:00;;;;;;;;;;;;;;;25.00;61.67;100649.91;2201008;39;113948;-53
2021/06/17 07:36:31;;;;;;;;;;;;;;;25.00;61.57;100646.22;2192209;39;114069;-53
2021/06/17 07:38:05;;;;;;;;;;;;;;;24.96;61.65;100637.63;2196356;39;113914;-53
2021/06/17 07:39:37;;;;;;;;;;;;;;;24.96;61.44;100639.63;2199395;39;114568;-53
2021/06/17 07:41:09;;;;;;;;;;;;;;;24.94;61.49;100633.50;2204754;39;113828;-54
2021/06/17 07:42:41;;;;;;;;;;;;;;;24.94;61.39;100642.78;2203020;39;113807;-53
2021/06/17 07:44:13;;;;;;;;;;;;;;;24.93;61.20;100638.34;2203079;39;114086;-53
2021/06/17 07:45:45;;;;;;;;;;;;;;;24.90;61.37;100638.16;2205801;39;113618;-53
2021/06/17 07:47:17;;;;;;;;;;;;;;;24.89;61.42;100647.84;2204507;39;114394;-53
2021/06/17 07:48:49;;;;;;;;;;;;;;;24.86;61.09;100649.34;2202599;39;113813;-54
2021/06/17 07:50:22;;;;;;;;;;;;;;;24.88;61.23;100647.03;2202941;39;114723;-53
2021/06/17 07:51:54;;;;;;;;;;;;;;;24.80;61.27;100645.88;2198838;39;116184;-53
2021/06/17 07:53:26;;;;;;;;;;;;;;;24.80;61.52;100662.03;2200433;39;114909;-55
2021/06/17 07:54:58;;;;;;;;;;;;;;;24.82;61.39;100662.50;2195954;39;114874;-53